Time;durP1;ratioP1;P1;durP2;ratioP2;P2;SDS_P1;SDS_P2;PMS_P1;PMS_P2;Temp;Humidity;BMP_temperature;BMP_pressure;BME280_temperature;BME280_humidity;BME280_pressure;Samples;Min_cycle;Max_cycle;Signal;HPM_P1;HPM_P2
2021/11/12 00:14:19;;;;;;;46.63;21.77;;;;;;;;;;5051642;28;20187;-82
2021/11/12 00:17:09;;;;;;;71.53;21.53;;;;;;;;;;5051624;28;20554;-82
2021/11/12 00:19:55;;;;;;;84.07;21.77;;;;;;;;;;5051712;28;20635;-81
2021/11/12 00:22:40;;;;;;;81.47;21.70;;;;;;;;;;5051721;28;20293;-81
2021/11/12 00:25:27;;;;;;;76.87;21.00;;;;;;;;;;5050694;28;20237;-82
2021/11/12 00:28:13;;;;;;;47.00;22.17;;;;;;;;;;5051378;28;20183;-81
2021/11/12 00:31:03;;;;;;;55.80;21.20;;;;;;;;;;5051281;28;20280;-81
2021/11/12 00:34:05;;;;;;;109.33;21.63;;;;;;;;;;5051212;28;20191;-82
2021/11/12 00:36:54;;;;;;;67.93;20.93;;;;;;;;;;5051476;28;20706;-82
2021/11/12 00:39:43;;;;;;;52.03;20.83;;;;;;;;;;5051937;28;20273;-82
2021/11/12 00:42:37;;;;;;;146.73;23.47;;;;;;;;;;5051056;28;20604;-82
2021/11/12 00:45:24;;;;;;;55.27;21.50;;;;;;;;;;5051582;28;20186;-82
2021/11/12 00:48:14;;;;;;;113.60;21.20;;;;;;;;;;5050975;28;20190;-81
2021/11/12 00:51:22;;;;;;;58.93;21.83;;;;;;;;;;5051010;28;20316;-81
2021/11/12 00:54:08;;;;;;;100.07;21.37;;;;;;;;;;5051019;28;20187;-82
2021/11/12 00:56:53;;;;;;;77.10;21.07;;;;;;;;;;5051446;28;20554;-82
2021/11/12 00:59:40;;;;;;;53.47;21.37;;;;;;;;;;5051353;28;20182;-83
2021/11/12 01:02:27;;;;;;;45.57;21.17;;;;;;;;;;5051193;28;20210;-81
2021/11/12 01:05:12;;;;;;;49.93;21.83;;;;;;;;;;5051512;28;20190;-82
2021/11/12 01:07:57;;;;;;;67.33;21.40;;;;;;;;;;5051427;28;20191;-82
2021/11/12 01:10:42;;;;;;;73.70;21.53;;;;;;;;;;5051172;28;20213;-82
2021/11/12 01:13:27;;;;;;;74.30;23.07;;;;;;;;;;5050723;28;20257;-82
2021/11/12 01:16:15;;;;;;;48.90;24.23;;;;;;;;;;5051090;28;20183;-83
2021/11/12 01:19:00;;;;;;;51.60;23.73;;;;;;;;;;5050677;28;20286;-82
2021/11/12 01:21:46;;;;;;;52.27;22.77;;;;;;;;;;5051131;28;20550;-83
2021/11/12 01:24:31;;;;;;;74.80;23.93;;;;;;;;;;5051179;28;20308;-82
2021/11/12 01:27:16;;;;;;;59.90;24.30;;;;;;;;;;5050874;28;20277;-83
2021/11/12 01:30:02;;;;;;;61.90;23.03;;;;;;;;;;5051052;28;20210;-83
2021/11/12 01:32:49;;;;;;;55.87;23.13;;;;;;;;;;5051139;28;20257;-82
2021/11/12 01:35:34;;;;;;;53.10;23.27;;;;;;;;;;5051106;28;20253;-82
2021/11/12 01:38:20;;;;;;;49.70;23.70;;;;;;;;;;5054647;28;20182;-83
2021/11/12 01:41:05;;;;;;;48.17;22.83;;;;;;;;;;5054630;28;20187;-83
2021/11/12 01:43:52;;;;;;;58.40;22.53;;;;;;;;;;5054751;28;20198;-83
2021/11/12 01:46:52;;;;;;;46.43;23.33;;;;;;;;;;5054513;28;20229;-83
2021/11/12 01:49:41;;;;;;;52.13;23.37;;;;;;;;;;5054595;28;20237;-83
2021/11/12 01:52:32;;;;;;;44.23;23.60;;;;;;;;;;5054536;28;20559;-83
2021/11/12 01:55:28;;;;;;;46.70;23.20;;;;;;;;;;5054537;28;20187;-82
2021/11/12 01:58:37;;;;;;;48.73;23.03;;;;;;;;;;5054043;28;20183;-83
2021/11/12 02:01:23;;;;;;;44.80;23.13;;;;;;;;;;5054190;28;20221;-83
2021/11/12 02:04:10;;;;;;;49.47;22.93;;;;;;;;;;5054061;28;20186;-83
2021/11/12 02:06:57;;;;;;;48.77;22.87;;;;;;;;;;5054368;28;20682;-83
2021/11/12 02:09:42;;;;;;;67.33;24.87;;;;;;;;;;5054080;28;20191;-83
2021/11/12 02:12:30;;;;;;;49.40;24.50;;;;;;;;;;5053828;28;20249;-83
2021/11/12 02:15:16;;;;;;;60.80;22.90;;;;;;;;;;5054105;28;20195;-83
2021/11/12 02:18:03;;;;;;;48.60;24.13;;;;;;;;;;5053892;28;20215;-84
2021/11/12 02:20:53;;;;;;;52.83;24.47;;;;;;;;;;5054095;28;20190;-83
2021/11/12 02:23:40;;;;;;;47.07;24.30;;;;;;;;;;5053899;28;20194;-83
2021/11/12 02:26:28;;;;;;;32.63;18.90;;;;;;;;;;5054016;28;20241;-83
2021/11/12 02:29:16;;;;;;;33.13;18.77;;;;;;;;;;5054002;28;20194;-83
2021/11/12 02:32:01;;;;;;;31.60;17.27;;;;;;;;;;5053491;28;20341;-83
2021/11/12 02:34:47;;;;;;;43.90;19.17;;;;;;;;;;5053742;28;20318;-82
2021/11/12 02:37:34;;;;;;;35.83;18.00;;;;;;;;;;5053467;28;20199;-83
2021/11/12 02:40:19;;;;;;;56.90;18.00;;;;;;;;;;5053627;28;20317;-83
2021/11/12 02:43:05;;;;;;;88.67;20.40;;;;;;;;;;5053280;28;20186;-84
2021/11/12 02:45:51;;;;;;;52.70;17.77;;;;;;;;;;5053252;28;20190;-83
2021/11/12 02:48:37;;;;;;;34.73;18.13;;;;;;;;;;5052566;28;20195;-83
2021/11/12 02:51:28;;;;;;;50.33;20.97;;;;;;;;;;5053198;28;20660;-83
2021/11/12 02:54:14;;;;;;;74.33;21.17;;;;;;;;;;5053576;28;20187;-84
2021/11/12 02:57:00;;;;;;;47.27;21.90;;;;;;;;;;5052909;28;20685;-83
2021/11/12 02:59:46;;;;;;;88.13;21.37;;;;;;;;;;5053234;28;20321;-84
2021/11/12 03:02:32;;;;;;;53.87;21.60;;;;;;;;;;5053254;28;20186;-83
2021/11/12 03:05:17;;;;;;;75.43;23.17;;;;;;;;;;5053280;28;20565;-84
2021/11/12 03:08:02;;;;;;;70.23;21.83;;;;;;;;;;5052904;28;20668;-84
2021/11/12 03:10:49;;;;;;;52.77;21.67;;;;;;;;;;5052857;28;20582;-83
2021/11/12 03:13:35;;;;;;;45.40;21.00;;;;;;;;;;5052998;28;20202;-83
2021/11/12 03:16:20;;;;;;;60.53;21.77;;;;;;;;;;5052707;28;20206;-83
2021/11/12 03:19:06;;;;;;;86.03;21.10;;;;;;;;;;5053124;28;20202;-84
2021/11/12 03:21:53;;;;;;;73.40;21.17;;;;;;;;;;5052957;28;20182;-83
2021/11/12 03:24:41;;;;;;;45.13;19.70;;;;;;;;;;5052938;28;20373;-83
2021/11/12 03:27:32;;;;;;;69.27;19.90;;;;;;;;;;5052749;28;20254;-84
2021/11/12 03:30:47;;;;;;;65.83;18.80;;;;;;;;;;5052727;28;20684;-84
2021/11/12 04:04:14;;;;;;;59.37;19.60;;;;;;;;;;5052500;28;20186;-83
2021/11/12 04:07:07;;;;;;;39.10;20.30;;;;;;;;;;5051652;28;20186;-83
2021/11/12 04:19:34;;;;;;;40.77;17.50;;;;;;;;;;5051750;28;20206;-83
2021/11/12 04:30:30;;;;;;;47.20;16.67;;;;;;;;;;5051777;28;20190;-83
2021/11/12 04:41:02;;;;;;;45.03;19.17;;;;;;;;;;5051875;28;20293;-84
2021/11/12 05:02:44;;;;;;;52.63;17.50;;;;;;;;;;5051363;28;20261;-84
2021/11/12 05:45:32;;;;;;;45.67;16.53;;;;;;;;;;5054515;28;20178;-84
2021/11/12 05:51:29;;;;;;;35.10;16.17;;;;;;;;;;5064225;28;20221;-83
2021/11/12 05:57:18;;;;;;;55.07;17.03;;;;;;;;;;5074846;28;20593;-82
2021/11/12 06:00:04;;;;;;;47.50;15.47;;;;;;;;;;5074538;28;20189;-84
2021/11/12 06:02:51;;;;;;;50.93;16.23;;;;;;;;;;5074575;28;20193;-83
2021/11/12 06:05:37;;;;;;;33.17;15.57;;;;;;;;;;5074413;28;20186;-83
2021/11/12 06:08:22;;;;;;;34.20;14.60;;;;;;;;;;5074209;28;20186;-84
2021/11/12 06:11:08;;;;;;;37.33;14.03;;;;;;;;;;5074037;28;20626;-85
2021/11/12 06:13:53;;;;;;;36.77;12.33;;;;;;;;;;5073669;28;20317;-83
2021/11/12 06:16:39;;;;;;;29.73;12.43;;;;;;;;;;5073862;28;20194;-83
2021/11/12 06:19:26;;;;;;;51.53;14.63;;;;;;;;;;5073787;28;20186;-83
2021/11/12 06:22:11;;;;;;;22.73;11.93;;;;;;;;;;5073126;28;20185;-84
2021/11/12 06:24:56;;;;;;;24.87;11.60;;;;;;;;;;5073486;28;20229;-84
2021/11/12 06:27:41;;;;;;;33.07;11.73;;;;;;;;;;5073453;28;20190;-83
2021/11/12 06:30:27;;;;;;;25.07;11.87;;;;;;;;;;5073710;28;20189;-84
2021/11/12 06:33:12;;;;;;;31.03;11.17;;;;;;;;;;5073362;28;20205;-84
2021/11/12 06:35:58;;;;;;;36.50;11.80;;;;;;;;;;5073321;28;20665;-84
2021/11/12 06:38:43;;;;;;;35.97;12.53;;;;;;;;;;5073884;28;20585;-86
2021/11/12 06:41:40;;;;;;;40.90;13.50;;;;;;;;;;5073978;28;20540;-82
2021/11/12 06:44:43;;;;;;;26.80;14.03;;;;;;;;;;5073328;28;20190;-84
2021/11/12 06:50:31;;;;;;;33.43;14.93;;;;;;;;;;5073616;28;20220;-84
2021/11/12 06:53:17;;;;;;;38.50;14.83;;;;;;;;;;5073355;28;20507;-84
2021/11/12 06:56:02;;;;;;;24.23;14.40;;;;;;;;;;5073829;28;20190;-83
2021/11/12 06:58:48;;;;;;;24.17;15.40;;;;;;;;;;5073474;28;20648;-84
2021/11/12 07:01:33;;;;;;;32.93;15.03;;;;;;;;;;5073699;28;20237;-84
2021/11/12 07:04:18;;;;;;;25.67;15.77;;;;;;;;;;5072831;28;20293;-83
2021/11/12 07:07:03;;;;;;;34.07;15.67;;;;;;;;;;5073329;28;20267;-83
2021/11/12 07:09:51;;;;;;;37.03;15.77;;;;;;;;;;5073762;28;20193;-83
2021/11/12 07:12:36;;;;;;;28.97;15.27;;;;;;;;;;5073164;28;20274;-84
2021/11/12 07:15:21;;;;;;;32.80;15.73;;;;;;;;;;5073080;28;20190;-84
2021/11/12 07:18:06;;;;;;;37.93;15.87;;;;;;;;;;5072900;28;20190;-84
2021/11/12 07:20:52;;;;;;;26.97;16.17;;;;;;;;;;5073054;28;20275;-83
2021/11/12 07:23:37;;;;;;;28.67;15.60;;;;;;;;;;5072551;28;20542;-83
2021/11/12 07:26:24;;;;;;;28.60;16.03;;;;;;;;;;5072723;28;20570;-83
2021/11/12 07:29:09;;;;;;;40.47;17.00;;;;;;;;;;5072727;28;20189;-84
2021/11/12 07:31:56;;;;;;;38.03;17.43;;;;;;;;;;5072878;28;20213;-84
2021/11/12 07:34:45;;;;;;;28.07;16.87;;;;;;;;;;5072497;28;20696;-84
2021/11/12 07:37:32;;;;;;;30.20;17.03;;;;;;;;;;5072698;28;20194;-84
2021/11/12 07:40:24;;;;;;;25.67;16.37;;;;;;;;;;5072438;28;20210;-84
2021/11/12 07:43:23;;;;;;;37.63;16.47;;;;;;;;;;5072530;28;20673;-83
2021/11/12 07:46:14;;;;;;;34.80;18.00;;;;;;;;;;5072606;28;20189;-83
2021/11/12 07:48:59;;;;;;;33.67;17.57;;;;;;;;;;5072362;28;20228;-84
2021/11/12 07:51:45;;;;;;;30.30;15.97;;;;;;;;;;5072225;28;20349;-83
2021/11/12 07:54:30;;;;;;;28.77;17.00;;;;;;;;;;5071915;28;20194;-82
2021/11/12 07:57:15;;;;;;;33.50;16.47;;;;;;;;;;5072176;28;20189;-84
2021/11/12 08:00:01;;;;;;;35.43;16.53;;;;;;;;;;5072377;28;20190;-83
2021/11/12 08:02:46;;;;;;;28.40;15.83;;;;;;;;;;5072159;28;20737;-83
2021/11/12 08:05:37;;;;;;;33.10;16.43;;;;;;;;;;5072345;28;20193;-84
2021/11/12 08:08:24;;;;;;;30.53;16.87;;;;;;;;;;5072294;28;20597;-83
2021/11/12 08:11:14;;;;;;;32.80;16.93;;;;;;;;;;5072008;28;20232;-84
2021/11/12 08:14:06;;;;;;;29.33;16.97;;;;;;;;;;5071947;28;20190;-83
2021/11/12 08:17:07;;;;;;;33.17;15.80;;;;;;;;;;5072207;28;20201;-83
2021/11/12 08:19:56;;;;;;;32.73;16.27;;;;;;;;;;5072633;28;20185;-83
2021/11/12 08:22:44;;;;;;;28.37;16.47;;;;;;;;;;5072259;28;20260;-84
2021/11/12 08:25:38;;;;;;;30.67;17.47;;;;;;;;;;5071898;28;20404;-83
2021/11/12 08:28:42;;;;;;;33.43;17.03;;;;;;;;;;5072273;28;20201;-84
2021/11/12 08:31:35;;;;;;;29.87;16.17;;;;;;;;;;5072142;28;20186;-84
2021/11/12 08:34:26;;;;;;;36.10;17.90;;;;;;;;;;5071631;28;20256;-84
2021/11/12 08:37:17;;;;;;;36.17;17.20;;;;;;;;;;5071906;28;20194;-84
2021/11/12 08:40:11;;;;;;;37.53;16.47;;;;;;;;;;5071219;28;20275;-83
2021/11/12 08:43:01;;;;;;;30.47;17.07;;;;;;;;;;5071773;28;20197;-84
2021/11/12 08:46:00;;;;;;;26.37;15.77;;;;;;;;;;5071104;28;20206;-83
2021/11/12 08:48:54;;;;;;;25.53;15.30;;;;;;;;;;5071760;28;20193;-83
2021/11/12 08:51:41;;;;;;;27.30;16.33;;;;;;;;;;5071941;28;20221;-84
2021/11/12 08:54:30;;;;;;;27.80;16.27;;;;;;;;;;5071443;28;20202;-83
2021/11/12 08:57:15;;;;;;;27.10;16.07;;;;;;;;;;5071523;28;20693;-84
2021/11/12 09:00:03;;;;;;;27.67;15.63;;;;;;;;;;5071519;28;20185;-84
2021/11/12 09:02:49;;;;;;;28.63;16.37;;;;;;;;;;5071262;28;20221;-83
2021/11/12 09:05:35;;;;;;;27.83;15.77;;;;;;;;;;5071485;28;20193;-83
2021/11/12 09:08:21;;;;;;;26.87;15.70;;;;;;;;;;5071312;28;20610;-83
2021/11/12 09:11:07;;;;;;;25.80;16.57;;;;;;;;;;5071506;28;20654;-84
2021/11/12 09:13:55;;;;;;;27.63;16.27;;;;;;;;;;5071034;28;20744;-83
2021/11/12 09:16:44;;;;;;;30.10;16.33;;;;;;;;;;5071335;28;20186;-83
2021/11/12 09:19:28;;;;;;;44.87;16.90;;;;;;;;;;5071644;28;20654;-85
2021/11/12 09:22:14;;;;;;;31.07;15.83;;;;;;;;;;5070964;28;20182;-84
2021/11/12 09:25:00;;;;;;;28.23;15.53;;;;;;;;;;5070918;28;20335;-83
2021/11/12 09:27:45;;;;;;;34.47;15.67;;;;;;;;;;5071257;28;20186;-83
2021/11/12 09:30:35;;;;;;;26.27;15.83;;;;;;;;;;5071089;28;20182;-83
2021/11/12 09:33:20;;;;;;;21.17;14.43;;;;;;;;;;5070918;28;20616;-84
2021/11/12 09:36:07;;;;;;;27.33;16.37;;;;;;;;;;5071088;28;20368;-83
2021/11/12 09:38:52;;;;;;;23.77;15.47;;;;;;;;;;5071215;28;20194;-83
2021/11/12 09:41:38;;;;;;;26.07;15.27;;;;;;;;;;5071209;28;20194;-83
2021/11/12 09:44:23;;;;;;;35.13;16.10;;;;;;;;;;5070850;28;20271;-83
2021/11/12 09:47:09;;;;;;;25.17;15.23;;;;;;;;;;5070786;28;20580;-83
2021/11/12 09:49:57;;;;;;;26.00;16.50;;;;;;;;;;5070978;28;20222;-84
2021/11/12 09:52:42;;;;;;;24.70;15.50;;;;;;;;;;5070815;28;20209;-82
2021/11/12 09:55:28;;;;;;;24.37;15.33;;;;;;;;;;5071069;28;20189;-83
2021/11/12 09:58:15;;;;;;;26.17;16.07;;;;;;;;;;5073757;28;20186;-83
2021/11/12 10:01:00;;;;;;;24.00;15.60;;;;;;;;;;5074710;28;20197;-84
2021/11/12 10:03:45;;;;;;;27.07;16.27;;;;;;;;;;5074503;28;20189;-83
2021/11/12 10:06:33;;;;;;;25.20;16.77;;;;;;;;;;5074425;28;20186;-83
2021/11/12 10:09:20;;;;;;;26.77;17.10;;;;;;;;;;5074587;28;20228;-83
2021/11/12 10:12:07;;;;;;;36.73;16.43;;;;;;;;;;5074346;28;20232;-82
2021/11/12 10:14:57;;;;;;;29.90;16.53;;;;;;;;;;5074470;28;20186;-82
2021/11/12 10:17:43;;;;;;;26.27;17.23;;;;;;;;;;5073630;28;20186;-83
2021/11/12 10:20:28;;;;;;;33.37;17.10;;;;;;;;;;5074489;28;20313;-83
2021/11/12 10:23:14;;;;;;;29.20;17.43;;;;;;;;;;5073939;28;20287;-85
2021/11/12 10:26:02;;;;;;;27.50;17.83;;;;;;;;;;5073743;28;20585;-82
2021/11/12 10:28:47;;;;;;;27.10;17.57;;;;;;;;;;5073918;28;20544;-83
2021/11/12 10:31:40;;;;;;;26.63;17.93;;;;;;;;;;5074160;28;20660;-82
2021/11/12 10:34:26;;;;;;;28.23;19.10;;;;;;;;;;5073821;28;20206;-84
2021/11/12 10:37:12;;;;;;;37.50;19.33;;;;;;;;;;5073639;28;20210;-83
2021/11/12 10:40:02;;;;;;;33.43;19.67;;;;;;;;;;5074069;28;20189;-82
2021/11/12 10:42:48;;;;;;;33.70;19.43;;;;;;;;;;5073562;28;20190;-83
2021/11/12 10:45:34;;;;;;;33.33;20.93;;;;;;;;;;5073752;28;20719;-81
2021/11/12 10:48:28;;;;;;;31.67;20.77;;;;;;;;;;5073386;28;20312;-83
2021/11/12 10:51:17;;;;;;;31.47;19.07;;;;;;;;;;5073523;28;20751;-84
2021/11/12 10:54:02;;;;;;;34.80;21.67;;;;;;;;;;5073674;28;20230;-83
2021/11/12 10:56:48;;;;;;;33.97;21.30;;;;;;;;;;5073427;28;20264;-84
2021/11/12 10:59:36;;;;;;;32.90;20.17;;;;;;;;;;5073474;28;20351;-83
2021/11/12 11:02:21;;;;;;;38.83;21.93;;;;;;;;;;5072957;28;20713;-84
2021/11/12 11:05:09;;;;;;;34.47;19.70;;;;;;;;;;5073385;28;20540;-84
2021/11/12 11:07:56;;;;;;;39.63;20.13;;;;;;;;;;5073255;28;20193;-82
2021/11/12 11:10:41;;;;;;;33.80;20.87;;;;;;;;;;5073077;28;20249;-84
2021/11/12 11:13:30;;;;;;;32.70;19.60;;;;;;;;;;5073463;28;20260;-83
2021/11/12 11:16:18;;;;;;;28.90;19.03;;;;;;;;;;5073050;28;20190;-82
2021/11/12 11:19:03;;;;;;;30.43;18.50;;;;;;;;;;5073275;28;20198;-80
2021/11/12 11:22:01;;;;;;;27.00;17.57;;;;;;;;;;5072545;28;20287;-83
2021/11/12 11:24:48;;;;;;;30.87;17.43;;;;;;;;;;5072868;28;20708;-82
2021/11/12 11:27:34;;;;;;;29.73;18.60;;;;;;;;;;5072577;28;20190;-82
2021/11/12 11:30:19;;;;;;;29.53;19.37;;;;;;;;;;5072891;28;20249;-86
2021/11/12 11:33:04;;;;;;;29.90;18.40;;;;;;;;;;5072375;28;20186;-84
2021/11/12 11:35:54;;;;;;;31.13;18.83;;;;;;;;;;5073048;28;20208;-84
2021/11/12 11:38:41;;;;;;;29.97;18.53;;;;;;;;;;5072661;28;20194;-84
2021/11/12 11:41:27;;;;;;;31.60;18.60;;;;;;;;;;5072302;28;20217;-85
2021/11/12 11:44:13;;;;;;;28.40;19.00;;;;;;;;;;5072971;28;20190;-83
2021/11/12 11:47:01;;;;;;;30.67;18.03;;;;;;;;;;5072367;28;20182;-82
2021/11/12 11:49:49;;;;;;;31.03;18.63;;;;;;;;;;5072174;28;20253;-84
2021/11/12 11:52:35;;;;;;;28.30;18.17;;;;;;;;;;5072366;28;20324;-83
2021/11/12 11:55:32;;;;;;;29.27;17.00;;;;;;;;;;5072475;28;20508;-84
2021/11/12 11:58:31;;;;;;;29.03;17.70;;;;;;;;;;5072538;28;20750;-84
2021/11/12 12:01:34;;;;;;;31.17;17.57;;;;;;;;;;5071910;28;20186;-85
2021/11/12 12:04:28;;;;;;;28.97;17.60;;;;;;;;;;5072487;28;20279;-84
2021/11/12 12:07:17;;;;;;;29.20;16.70;;;;;;;;;;5071663;28;20190;-85
2021/11/12 12:10:23;;;;;;;27.47;17.43;;;;;;;;;;5069980;28;20305;-86
2021/11/12 12:13:09;;;;;;;26.33;16.83;;;;;;;;;;5052033;28;20218;-85
2021/11/12 12:16:06;;;;;;;29.00;16.90;;;;;;;;;;5055891;28;20204;-83
2021/11/12 12:18:53;;;;;;;29.20;16.90;;;;;;;;;;5072149;28;20190;-84
2021/11/12 12:22:04;;;;;;;27.67;16.60;;;;;;;;;;5069937;28;20668;-84
2021/11/12 12:34:39;;;;;;;28.47;17.47;;;;;;;;;;5052254;28;20692;-83
2021/11/12 12:37:53;;;;;;;30.60;17.63;;;;;;;;;;5051614;28;20214;-83
2021/11/12 13:21:05;;;;;;;43.13;19.00;;;;;;;;;;5050857;28;20179;-84
2021/11/12 13:24:04;;;;;;;31.60;18.70;;;;;;;;;;5050919;28;20272;-84
2021/11/12 13:26:56;;;;;;;30.77;17.87;;;;;;;;;;5051513;28;20281;-88
2021/11/12 13:29:43;;;;;;;31.10;19.07;;;;;;;;;;5051123;28;20187;-83
2021/11/12 13:32:28;;;;;;;29.10;19.13;;;;;;;;;;5053271;28;20187;-85
2021/11/12 13:35:27;;;;;;;32.17;19.13;;;;;;;;;;5054753;28;20206;-84
2021/11/12 13:38:12;;;;;;;31.57;18.70;;;;;;;;;;5054815;28;20198;-84
2021/11/12 13:41:01;;;;;;;35.37;18.37;;;;;;;;;;5055258;28;20191;-85
2021/11/12 13:43:48;;;;;;;27.90;17.47;;;;;;;;;;5055011;28;20191;-85
2021/11/12 13:46:43;;;;;;;30.93;17.83;;;;;;;;;;5054507;28;20199;-85
2021/11/12 13:49:30;;;;;;;25.27;16.63;;;;;;;;;;5054729;28;20206;-84
2021/11/12 13:52:17;;;;;;;25.57;17.23;;;;;;;;;;5054954;28;20254;-85
2021/11/12 13:55:04;;;;;;;44.43;24.83;;;;;;;;;;5054788;28;20206;-84
2021/11/12 13:57:59;;;;;;;29.43;18.60;;;;;;;;;;5054840;28;20210;-84
2021/11/12 14:00:44;;;;;;;23.73;16.10;;;;;;;;;;5053954;28;20306;-84
2021/11/12 14:03:32;;;;;;;26.70;17.10;;;;;;;;;;5054404;28;20751;-83
2021/11/12 14:06:19;;;;;;;26.53;17.27;;;;;;;;;;5054805;28;20251;-84
2021/11/12 14:09:06;;;;;;;27.27;16.40;;;;;;;;;;5054381;28;20269;-87
2021/11/12 14:12:02;;;;;;;25.23;16.47;;;;;;;;;;5054678;28;20902;-84
2021/11/12 14:15:03;;;;;;;24.67;16.33;;;;;;;;;;5054050;28;20261;-84
2021/11/12 14:18:06;;;;;;;26.50;16.70;;;;;;;;;;5054599;28;20658;-86
2021/11/12 14:20:58;;;;;;;24.23;16.17;;;;;;;;;;5054237;28;20190;-85
2021/11/12 14:23:51;;;;;;;26.90;17.03;;;;;;;;;;5055306;28;20187;-87
2021/11/12 14:26:45;;;;;;;31.47;17.70;;;;;;;;;;5055359;28;20194;-85
2021/11/12 14:29:37;;;;;;;30.13;18.93;;;;;;;;;;5054927;28;20322;-85
2021/11/12 14:32:34;;;;;;;31.43;18.67;;;;;;;;;;5054391;28;20333;-86
2021/11/12 14:35:32;;;;;;;32.57;18.87;;;;;;;;;;5053282;28;20211;-86
2021/11/12 14:38:24;;;;;;;34.27;19.60;;;;;;;;;;5054475;28;20535;-85
2021/11/12 14:41:25;;;;;;;37.17;18.93;;;;;;;;;;5053655;28;20194;-84
2021/11/12 14:44:24;;;;;;;31.63;19.27;;;;;;;;;;5052703;28;20187;-86
2021/11/12 14:47:15;;;;;;;32.20;19.87;;;;;;;;;;5053536;28;20658;-85
2021/11/12 14:50:05;;;;;;;32.50;18.60;;;;;;;;;;5064223;28;20345;-85
2021/11/12 14:53:14;;;;;;;41.63;20.77;;;;;;;;;;5060699;28;20194;-83
2021/11/12 14:56:06;;;;;;;40.10;19.27;;;;;;;;;;5067114;28;20345;-84
2021/11/12 14:58:55;;;;;;;33.87;18.87;;;;;;;;;;5075176;28;20547;-87
2021/11/12 15:01:42;;;;;;;29.50;18.37;;;;;;;;;;5064103;28;20253;-88
2021/11/12 15:04:27;;;;;;;33.27;18.23;;;;;;;;;;5063935;28;20190;-87
2021/11/12 15:07:13;;;;;;;31.13;18.10;;;;;;;;;;5076293;28;20260;-88
2021/11/12 15:09:59;;;;;;;31.33;18.63;;;;;;;;;;5074631;28;20701;-86
2021/11/12 15:12:49;;;;;;;31.50;18.63;;;;;;;;;;5074301;28;20630;-86
2021/11/12 15:15:34;;;;;;;33.03;19.30;;;;;;;;;;5073631;28;20212;-87
2021/11/12 15:18:22;;;;;;;37.03;19.20;;;;;;;;;;5075741;28;20202;-89
2021/11/12 15:21:13;;;;;;;29.80;18.87;;;;;;;;;;5076821;28;20595;-86
2021/11/12 15:24:07;;;;;;;31.03;17.53;;;;;;;;;;5076459;28;20236;-87
2021/11/12 15:27:05;;;;;;;31.53;18.00;;;;;;;;;;5075762;28;20193;-88
2021/11/12 15:29:53;;;;;;;26.07;17.23;;;;;;;;;;5080021;28;20211;-89
2021/11/12 15:32:39;;;;;;;33.93;17.73;;;;;;;;;;5078348;28;20232;-86
2021/11/12 15:35:28;;;;;;;43.03;17.40;;;;;;;;;;5074480;28;20209;-84
2021/11/12 15:38:17;;;;;;;32.93;18.40;;;;;;;;;;5073446;28;20292;-85
2021/11/12 15:41:05;;;;;;;30.37;17.93;;;;;;;;;;5073348;28;20550;-83
2021/11/12 15:43:56;;;;;;;31.83;18.33;;;;;;;;;;5073600;28;20197;-87
2021/11/12 15:46:44;;;;;;;38.63;18.53;;;;;;;;;;5072973;28;20182;-82
2021/11/12 15:49:29;;;;;;;36.17;19.13;;;;;;;;;;5072199;28;20560;-83
2021/11/12 15:52:20;;;;;;;35.30;19.53;;;;;;;;;;5072733;28;20193;-84
2021/11/12 15:55:12;;;;;;;37.37;19.10;;;;;;;;;;5071962;28;20252;-83
2021/11/12 16:01:16;;;;;;;37.77;18.47;;;;;;;;;;5072275;28;20185;-84
2021/11/12 16:13:24;;;;;;;32.83;17.73;;;;;;;;;;5048545;28;20248;-85
2021/11/12 16:19:20;;;;;;;30.77;17.90;;;;;;;;;;5072201;28;20232;-86
2021/11/12 16:22:29;;;;;;;29.27;16.77;;;;;;;;;;5072787;28;20190;-87
2021/11/12 16:25:19;;;;;;;28.97;17.10;;;;;;;;;;5071398;28;20221;-86
2021/11/12 16:28:05;;;;;;;26.23;16.03;;;;;;;;;;5072381;28;20185;-86
2021/11/12 16:30:55;;;;;;;26.60;15.80;;;;;;;;;;5071911;28;20190;-84
2021/11/12 16:33:40;;;;;;;25.83;14.43;;;;;;;;;;5072139;28;20221;-84
2021/11/12 16:36:25;;;;;;;24.33;15.37;;;;;;;;;;5072186;28;20332;-83
2021/11/12 16:39:11;;;;;;;27.10;15.83;;;;;;;;;;5071600;28;20182;-85
2021/11/12 16:42:08;;;;;;;28.67;16.07;;;;;;;;;;5071582;28;20190;-85
2021/11/12 16:44:57;;;;;;;27.60;15.60;;;;;;;;;;5070857;28;20323;-85
2021/11/12 16:48:01;;;;;;;29.77;16.30;;;;;;;;;;5071466;28;20194;-85
2021/11/12 16:50:54;;;;;;;22.57;15.23;;;;;;;;;;5070686;28;20224;-86
2021/11/12 16:53:52;;;;;;;26.50;14.97;;;;;;;;;;5071572;28;20196;-85
2021/11/12 16:59:44;;;;;;;23.47;14.97;;;;;;;;;;5072116;28;20241;-85
2021/11/12 17:02:35;;;;;;;23.33;15.17;;;;;;;;;;5071920;28;20190;-84
2021/11/12 17:05:25;;;;;;;26.83;15.57;;;;;;;;;;5071438;28;20177;-85
2021/11/12 17:08:18;;;;;;;25.73;15.20;;;;;;;;;;5075172;28;20236;-84
2021/11/12 17:11:11;;;;;;;25.70;15.57;;;;;;;;;;5076318;28;20240;-84
2021/11/12 17:14:22;;;;;;;24.00;15.17;;;;;;;;;;5076168;28;20210;-85
2021/11/12 17:17:25;;;;;;;26.00;14.40;;;;;;;;;;5075945;28;20295;-86
2021/11/12 17:20:26;;;;;;;22.13;13.83;;;;;;;;;;5075827;28;20185;-85
2021/11/12 17:23:57;;;;;;;22.67;14.27;;;;;;;;;;5075846;28;20704;-84
2021/11/12 17:48:09;;;;;;;25.30;15.68;;;;;;;;;;5051666;28;20756;-85
2021/11/12 17:51:11;;;;;;;21.87;14.43;;;;;;;;;;5074695;28;20221;-85
2021/11/12 18:03:14;;;;;;;23.20;13.20;;;;;;;;;;5074221;28;20700;-86
2021/11/12 18:06:02;;;;;;;24.50;14.33;;;;;;;;;;5073825;28;20193;-86
2021/11/12 18:09:28;;;;;;;24.17;13.63;;;;;;;;;;5074007;28;20216;-85
2021/11/12 18:21:43;;;;;;;21.57;13.63;;;;;;;;;;5073485;28;20293;-86
2021/11/12 21:45:42;;;;;;;19.77;12.17;;;;;;;;;;5070241;28;20272;-87
2021/11/12 21:48:31;;;;;;;19.77;12.40;;;;;;;;;;5070645;28;20206;-87
2021/11/12 21:51:23;;;;;;;21.70;11.97;;;;;;;;;;5070053;28;20304;-87
2021/11/12 21:54:09;;;;;;;23.80;12.93;;;;;;;;;;5073489;28;20410;-87
2021/11/12 21:56:56;;;;;;;21.30;12.77;;;;;;;;;;5073875;28;20229;-85
2021/11/12 21:59:41;;;;;;;22.27;12.57;;;;;;;;;;5074279;28;20194;-86
2021/11/12 22:02:28;;;;;;;20.33;12.40;;;;;;;;;;5074304;28;20324;-86
2021/11/12 22:05:15;;;;;;;18.20;11.20;;;;;;;;;;5073944;28;20215;-86
2021/11/12 22:08:00;;;;;;;19.47;10.63;;;;;;;;;;5074359;28;20645;-86
2021/11/12 22:10:45;;;;;;;19.70;11.20;;;;;;;;;;5074251;28;20248;-86
2021/11/12 22:13:31;;;;;;;21.67;11.83;;;;;;;;;;5073922;28;20274;-85
2021/11/12 22:16:17;;;;;;;22.30;11.90;;;;;;;;;;5073391;28;20221;-86
2021/11/12 22:19:03;;;;;;;20.53;12.03;;;;;;;;;;5073929;28;20189;-87
2021/11/12 22:21:49;;;;;;;20.97;12.27;;;;;;;;;;5073713;28;20193;-86
2021/11/12 22:24:34;;;;;;;19.03;12.03;;;;;;;;;;5073426;28;20238;-86
2021/11/12 22:27:20;;;;;;;24.70;12.30;;;;;;;;;;5073621;28;20185;-86
2021/11/12 22:30:05;;;;;;;22.63;12.77;;;;;;;;;;5073549;28;20323;-86
2021/11/12 22:32:51;;;;;;;20.87;12.50;;;;;;;;;;5073574;28;20267;-86
2021/11/12 22:35:37;;;;;;;22.93;12.33;;;;;;;;;;5073352;28;20186;-86
2021/11/12 22:38:23;;;;;;;22.10;12.87;;;;;;;;;;5073464;28;20281;-86
2021/11/12 22:41:09;;;;;;;23.13;13.23;;;;;;;;;;5072961;28;20186;-86
2021/11/12 22:43:59;;;;;;;17.73;12.33;;;;;;;;;;5073426;28;20190;-86
2021/11/12 22:46:44;;;;;;;21.37;12.50;;;;;;;;;;5073304;28;20186;-86
2021/11/12 22:49:29;;;;;;;19.73;11.97;;;;;;;;;;5072940;28;20190;-85
2021/11/12 22:52:14;;;;;;;21.20;12.03;;;;;;;;;;5072935;28;20616;-86
2021/11/12 22:55:00;;;;;;;23.43;12.77;;;;;;;;;;5072812;28;20542;-86
2021/11/12 22:57:45;;;;;;;21.57;12.80;;;;;;;;;;5073100;28;20341;-87
2021/11/12 23:00:36;;;;;;;23.37;12.77;;;;;;;;;;5072859;28;20211;-86
2021/11/12 23:03:21;;;;;;;21.07;12.70;;;;;;;;;;5073629;28;20178;-86
2021/11/12 23:06:06;;;;;;;21.77;12.43;;;;;;;;;;5072155;28;20263;-86
2021/11/12 23:08:52;;;;;;;20.50;12.33;;;;;;;;;;5073602;28;20178;-88
2021/11/12 23:11:38;;;;;;;21.53;13.00;;;;;;;;;;5072796;28;20194;-86
2021/11/12 23:14:23;;;;;;;23.07;12.57;;;;;;;;;;5073428;28;20666;-86
2021/11/12 23:17:08;;;;;;;20.77;12.73;;;;;;;;;;5073601;28;20295;-87
2021/11/12 23:19:53;;;;;;;23.17;13.03;;;;;;;;;;5073126;28;20182;-87
2021/11/12 23:22:39;;;;;;;22.70;12.13;;;;;;;;;;5072957;28;20212;-87
2021/11/12 23:25:24;;;;;;;20.87;13.30;;;;;;;;;;5073094;28;20296;-87
2021/11/12 23:28:11;;;;;;;25.83;13.87;;;;;;;;;;5073156;28;20688;-90
2021/11/12 23:30:57;;;;;;;23.37;13.20;;;;;;;;;;5070977;28;20568;-84
2021/11/12 23:33:42;;;;;;;25.97;13.00;;;;;;;;;;5069365;28;20308;-86
2021/11/12 23:36:27;;;;;;;24.60;13.70;;;;;;;;;;5072394;28;20567;-87
2021/11/12 23:39:12;;;;;;;23.10;13.70;;;;;;;;;;5072924;28;20190;-86
2021/11/12 23:41:57;;;;;;;23.27;13.73;;;;;;;;;;5072783;28;20197;-86
2021/11/12 23:44:43;;;;;;;25.20;13.80;;;;;;;;;;5072563;28;20316;-85
2021/11/12 23:47:28;;;;;;;24.30;12.83;;;;;;;;;;5072260;28;20240;-86
2021/11/12 23:50:15;;;;;;;22.10;13.20;;;;;;;;;;5072353;28;20226;-85